createdAt,value
2022-11-04T00:00:08.709Z,17.25
2022-11-04T00:02:42.998Z,16.50
2022-11-04T00:05:16.858Z,11.50
2022-11-04T00:08:07.671Z,17.00
2022-11-04T00:10:58.527Z,15.00
2022-11-04T00:13:33.612Z,17.00
2022-11-04T00:16:24.686Z,16.00
2022-11-04T00:18:58.318Z,16.25
2022-11-04T00:21:48.689Z,21.75
2022-11-04T00:24:39.217Z,19.00
2022-11-04T00:27:31.330Z,11.50
2022-11-04T00:30:09.808Z,24.25
2022-11-04T00:33:00.812Z,17.00
2022-11-04T00:35:34.400Z,18.00
2022-11-04T00:38:07.579Z,16.00
2022-11-04T00:40:41.310Z,20.75
2022-11-04T00:43:15.285Z,13.25
2022-11-04T00:45:50.284Z,25.00
2022-11-04T00:48:23.906Z,22.75
2022-11-04T00:50:57.509Z,22.00
2022-11-04T00:53:31.183Z,29.25
2022-11-04T00:56:04.918Z,24.25
2022-11-04T00:58:38.561Z,26.25
2022-11-04T01:01:18.151Z,25.00
2022-11-04T01:03:54.260Z,26.75
2022-11-04T01:06:28.582Z,32.25
2022-11-04T01:09:04.146Z,18.50
2022-11-04T01:11:36.948Z,15.50
2022-11-04T01:14:10.079Z,28.50
2022-11-04T01:16:45.369Z,24.75
2022-11-04T01:19:19.045Z,29.25
2022-11-04T01:21:53.829Z,36.25
2022-11-04T01:24:27.918Z,28.50
2022-11-04T01:27:00.797Z,28.00
2022-11-04T01:29:33.767Z,27.00
2022-11-04T01:32:08.147Z,23.00
2022-11-04T01:34:43.465Z,30.00
2022-11-04T01:37:16.594Z,30.00
2022-11-04T01:39:50.403Z,34.50
2022-11-04T01:42:24.336Z,31.00
2022-11-04T01:45:01.102Z,26.50
2022-11-04T01:47:41.173Z,25.75
2022-11-04T01:50:18.000Z,38.25
2022-11-04T01:52:56.035Z,41.00
2022-11-04T01:55:35.921Z,35.75
2022-11-04T01:58:12.808Z,35.00
2022-11-04T02:00:46.020Z,36.25
2022-11-04T02:03:25.190Z,37.75
2022-11-04T02:05:59.605Z,35.75
2022-11-04T02:08:33.626Z,41.50
2022-11-04T02:11:07.754Z,32.00
2022-11-04T02:13:39.580Z,42.25
2022-11-04T02:16:25.781Z,43.00
2022-11-04T02:19:17.422Z,29.75
2022-11-04T02:22:25.742Z,32.75
2022-11-04T02:25:23.395Z,28.75
2022-11-04T02:28:28.103Z,24.75
2022-11-04T02:31:10.272Z,27.75
2022-11-04T02:33:54.156Z,31.25
2022-11-04T02:36:40.470Z,29.00
2022-11-04T02:39:25.925Z,32.25
2022-11-04T02:42:05.822Z,33.25
2022-11-04T02:44:46.692Z,24.00
2022-11-04T02:47:27.007Z,34.25
2022-11-04T02:50:07.677Z,33.75
2022-11-04T02:52:50.365Z,31.00
2022-11-04T02:55:28.837Z,37.75
2022-11-04T02:58:07.524Z,30.50
2022-11-04T03:00:43.711Z,47.25
2022-11-04T03:03:24.719Z,37.25
2022-11-04T03:06:02.586Z,32.75
2022-11-04T03:08:40.573Z,43.33
2022-11-04T03:11:17.243Z,35.67
2022-11-04T03:13:59.305Z,44.33
2022-11-04T03:16:39.241Z,34.33
2022-11-04T03:19:18.588Z,31.50
2022-11-04T03:21:56.867Z,35.33
2022-11-04T03:24:31.387Z,25.67
2022-11-04T03:27:11.358Z,26.33
2022-11-04T03:29:51.549Z,22.00
2022-11-04T03:32:30.374Z,7.33
2022-11-04T03:35:06.012Z,24.00
2022-11-04T03:37:39.873Z,25.33
2022-11-04T03:40:16.014Z,23.67
2022-11-04T03:42:57.460Z,26.00
2022-11-04T03:45:31.296Z,25.50
2022-11-04T03:48:07.001Z,31.00
2022-11-04T03:50:44.546Z,27.67
2022-11-04T03:53:21.994Z,19.33
2022-11-04T03:56:13.820Z,23.33
2022-11-04T03:58:58.770Z,29.33
2022-11-04T04:01:41.512Z,32.00
2022-11-04T04:04:22.170Z,32.00
2022-11-04T04:07:04.700Z,36.33
2022-11-04T04:09:43.860Z,35.33
2022-11-04T04:12:29.555Z,34.75
2022-11-04T04:15:10.045Z,39.25
2022-11-04T04:17:52.713Z,43.50
2022-11-04T04:20:30.606Z,53.00
2022-11-04T04:23:29.952Z,44.67
2022-11-04T04:26:24.641Z,38.33
2022-11-04T04:28:58.693Z,45.00
2022-11-04T04:31:57.645Z,38.33
2022-11-04T04:34:33.321Z,46.67
2022-11-04T04:37:10.725Z,47.67
2022-11-04T04:40:07.484Z,43.33
2022-11-04T04:42:58.952Z,43.00
2022-11-04T04:45:36.347Z,52.00
2022-11-04T04:48:13.351Z,56.67
2022-11-04T04:50:51.271Z,50.33
2022-11-04T04:53:25.212Z,57.00
2022-11-04T04:56:00.316Z,38.33
2022-11-04T04:58:33.255Z,49.33
2022-11-04T05:01:07.005Z,62.00
2022-11-04T05:03:44.940Z,46.33
2022-11-04T05:06:18.309Z,44.00
2022-11-04T05:08:51.148Z,66.75
2022-11-04T05:11:27.218Z,69.33
2022-11-04T05:14:00.780Z,90.25
2022-11-04T05:16:39.490Z,98.00
2022-11-04T05:19:14.037Z,94.25
2022-11-04T05:21:47.639Z,98.50
2022-11-04T05:24:20.487Z,99.00
2022-11-04T05:26:54.956Z,93.50
2022-11-04T05:29:27.855Z,97.50
2022-11-04T05:32:01.395Z,86.33
2022-11-04T05:34:35.188Z,82.33
2022-11-04T05:37:08.913Z,69.33
2022-11-04T05:39:42.542Z,70.33
2022-11-04T05:42:17.697Z,75.00
2022-11-04T05:44:51.457Z,80.67
2022-11-04T05:47:25.053Z,72.00
2022-11-04T05:49:58.899Z,68.00
2022-11-04T05:52:31.715Z,62.00
2022-11-04T05:55:05.822Z,61.67
2022-11-04T05:57:40.866Z,59.00
2022-11-04T06:00:16.512Z,56.67
2022-11-04T06:02:49.883Z,51.33
2022-11-04T06:05:22.815Z,55.00
2022-11-04T06:07:57.050Z,43.33
2022-11-04T06:10:30.780Z,41.33
2022-11-04T06:13:05.844Z,32.33
2022-11-04T06:15:39.639Z,32.50
2022-11-04T06:18:13.306Z,10.00
2022-11-04T06:20:46.291Z,26.00
2022-11-04T06:23:19.171Z,26.50
2022-11-04T06:26:00.222Z,33.00
2022-11-04T06:28:35.983Z,33.25
2022-11-04T06:31:11.772Z,32.50
2022-11-04T06:33:45.797Z,37.50
2022-11-04T06:36:19.980Z,38.75
2022-11-04T06:38:53.708Z,44.33
2022-11-04T06:41:27.390Z,58.67
2022-11-04T06:44:02.475Z,35.33
2022-11-04T06:46:39.052Z,42.50
2022-11-04T06:49:14.967Z,35.75
2022-11-04T06:51:49.316Z,52.33
2022-11-04T06:54:22.236Z,38.00
2022-11-04T06:56:55.980Z,33.00
2022-11-04T06:59:31.051Z,26.25
2022-11-04T07:02:05.528Z,36.00
2022-11-04T07:04:39.429Z,31.50
2022-11-04T07:07:13.127Z,40.75
2022-11-04T07:09:46.714Z,36.50
2022-11-04T07:12:20.443Z,36.75
2022-11-04T07:14:56.611Z,36.50
2022-11-04T07:17:29.589Z,47.25
2022-11-04T07:20:03.195Z,41.50
2022-11-04T07:22:36.076Z,38.75
2022-11-04T07:25:10.912Z,36.75
2022-11-04T07:27:44.603Z,42.75
2022-11-04T07:30:20.591Z,39.50
2022-11-04T07:32:55.098Z,40.00
2022-11-04T07:35:28.629Z,47.50
2022-11-04T07:38:04.235Z,46.50
2022-11-04T07:40:39.882Z,48.50
2022-11-04T07:43:12.761Z,41.75
2022-11-04T07:45:47.806Z,53.75
2022-11-04T07:48:21.682Z,58.00
2022-11-04T07:50:57.632Z,49.33
2022-11-04T07:53:32.340Z,61.67
2022-11-04T07:56:06.962Z,54.33
2022-11-04T07:58:41.197Z,48.00
2022-11-04T08:01:18.346Z,40.50
2022-11-04T08:03:52.419Z,36.25
2022-11-04T08:06:25.937Z,33.75
2022-11-04T08:09:00.292Z,37.25
2022-11-04T08:11:33.489Z,35.25
2022-11-04T08:14:06.488Z,41.75
2022-11-04T08:16:41.497Z,42.25
2022-11-04T08:19:15.901Z,41.00
2022-11-04T08:21:49.425Z,43.75
2022-11-04T08:24:23.337Z,39.50
2022-11-04T08:26:56.144Z,40.50
2022-11-04T08:29:30.126Z,37.50
2022-11-04T08:32:05.467Z,49.25
2022-11-04T08:34:38.462Z,43.25
2022-11-04T08:37:14.565Z,50.25
2022-11-04T08:39:48.272Z,46.25
2022-11-04T08:42:22.164Z,42.50
2022-11-04T08:44:55.859Z,40.25
2022-11-04T08:47:30.889Z,37.00
2022-11-04T08:50:04.880Z,34.50
2022-11-04T08:52:38.545Z,41.50
2022-11-04T08:55:12.580Z,24.50
2022-11-04T08:57:46.173Z,43.00
2022-11-04T09:00:20.372Z,26.75
2022-11-04T09:02:55.911Z,35.00
2022-11-04T09:05:30.308Z,31.75
2022-11-04T09:08:05.253Z,30.75
2022-11-04T09:10:42.779Z,47.25
2022-11-04T09:13:17.624Z,22.50
2022-11-04T09:15:50.699Z,32.00
2022-11-04T09:18:25.283Z,3864.50
2022-11-04T09:21:02.640Z,30.50
2022-11-04T09:23:36.002Z,3052.25
2022-11-04T09:26:11.594Z,3821.00
2022-11-04T09:28:45.531Z,1883.00
2022-11-04T09:31:20.887Z,1732.75
2022-11-04T09:33:56.242Z,112.50
2022-11-04T09:36:30.686Z,395.00
2022-11-04T09:39:04.228Z,1930.20
2022-11-04T09:42:02.406Z,3753.40
2022-11-04T09:45:14.885Z,3705.80
2022-11-04T09:47:40.844Z,3639.00
2022-11-04T09:50:24.470Z,3709.25
2022-11-04T09:53:02.984Z,3715.25
2022-11-04T09:55:46.254Z,3683.00
2022-11-04T09:58:19.818Z,3697.25
2022-11-04T10:01:02.895Z,3546.50
2022-11-04T10:03:49.667Z,3685.00
2022-11-04T10:06:38.083Z,1251.60
2022-11-04T10:09:36.236Z,13.00
2022-11-04T10:12:23.486Z,17.50
2022-11-04T10:15:10.843Z,14.00
2022-11-04T10:18:01.257Z,36.00
2022-11-04T10:20:50.669Z,20.50
2022-11-04T10:23:34.083Z,3753.40
2022-11-04T10:26:16.547Z,3676.60
2022-11-04T10:28:58.143Z,3726.80
2022-11-04T10:31:31.869Z,20.50
2022-11-04T10:34:08.917Z,2253.60
2022-11-04T10:36:42.615Z,57.60
2022-11-04T10:39:24.243Z,481.20
2022-11-04T10:41:58.282Z,17.50
2022-11-04T10:44:35.639Z,15.50
2022-11-04T10:47:33.438Z,19.75
2022-11-04T10:50:32.658Z,18.00
2022-11-04T10:53:17.971Z,14.50
2022-11-04T10:56:00.937Z,14.50
2022-11-04T10:58:38.174Z,3679.40
2022-11-04T11:01:26.748Z,18.25
2022-11-04T11:04:01.300Z,23.00
2022-11-04T11:06:38.581Z,19.75
2022-11-04T11:09:19.858Z,1127.00
2022-11-04T11:11:55.073Z,14.00
2022-11-04T11:14:38.080Z,2892.75
2022-11-04T11:17:22.771Z,3719.60
2022-11-04T11:19:58.173Z,69.50
2022-11-04T11:22:35.766Z,20.50
2022-11-04T11:25:22.622Z,12.25
2022-11-04T11:27:59.451Z,70.75
2022-11-04T11:30:35.119Z,671.25
2022-11-04T11:33:18.320Z,3701.25
2022-11-04T11:35:54.246Z,41.00
2022-11-04T11:38:28.719Z,5.00
2022-11-04T11:41:24.424Z,35.75
2022-11-04T11:44:03.385Z,26.00
2022-11-04T11:46:42.071Z,3660.80
2022-11-04T11:49:25.724Z,40.50
2022-11-04T11:52:22.488Z,55.50
2022-11-04T11:55:03.766Z,2958.75
2022-11-04T12:01:03.203Z,3656.20
2022-11-04T12:09:48.610Z,3703.60
2022-11-04T12:12:53.773Z,3678.80
2022-11-04T12:15:39.072Z,3659.60
2022-11-04T12:18:36.683Z,110.20
2022-11-04T12:21:15.986Z,3634.20
2022-11-04T12:23:55.572Z,3638.60
2022-11-04T12:26:37.765Z,3519.20
2022-11-04T12:29:29.899Z,3483.50
2022-11-04T12:32:13.374Z,3427.60
2022-11-04T12:35:00.694Z,3448.00
2022-11-04T12:37:47.859Z,2529.60
2022-11-04T12:40:23.012Z,3460.80
2022-11-04T12:43:12.614Z,3476.40
2022-11-04T12:45:56.645Z,3462.40
2022-11-04T12:48:50.795Z,3460.80
2022-11-04T12:51:43.352Z,3461.00
2022-11-04T12:54:30.310Z,3448.50
2022-11-04T12:57:14.276Z,3474.80
2022-11-04T13:00:15.478Z,3178.25
2022-11-04T13:02:53.038Z,2790.60
2022-11-04T13:05:41.228Z,448.60
2022-11-04T13:08:23.975Z,2904.20
2022-11-04T13:11:03.534Z,3073.20
2022-11-04T13:13:39.934Z,3459.60
2022-11-04T13:16:13.959Z,3435.40
2022-11-04T13:18:49.140Z,3386.60
2022-11-04T13:21:27.519Z,3463.80
2022-11-04T13:24:05.688Z,3470.60
2022-11-04T13:26:39.471Z,3213.00
2022-11-04T13:29:16.738Z,3234.20
2022-11-04T13:31:55.812Z,3034.40
2022-11-04T13:34:39.584Z,3121.25
2022-11-04T13:37:22.955Z,3568.20
2022-11-04T13:40:00.601Z,80.80
2022-11-04T13:43:18.791Z,1577.75
2022-11-04T13:45:55.342Z,54.75
2022-11-04T13:48:31.593Z,1631.40
2022-11-04T13:51:08.261Z,51.75
2022-11-04T13:53:44.058Z,1119.40
2022-11-04T13:56:34.852Z,849.00
2022-11-04T13:59:21.102Z,3606.50
2022-11-04T14:02:35.629Z,1437.80
2022-11-04T14:05:55.868Z,567.60
2022-11-04T14:08:28.884Z,769.40
2022-11-04T14:11:13.202Z,2933.20
2022-11-04T14:14:01.340Z,3426.80
2022-11-04T14:16:45.677Z,3575.00
2022-11-04T14:19:57.701Z,3583.00
2022-11-04T14:22:49.196Z,3596.40
2022-11-04T14:25:29.095Z,3243.60
2022-11-04T14:28:03.873Z,3637.00
2022-11-04T14:30:45.761Z,3652.20
2022-11-04T14:33:43.281Z,3636.40
2022-11-04T14:36:35.693Z,2387.25
2022-11-04T14:39:22.781Z,2205.33
2022-11-04T14:41:58.645Z,30.75
2022-11-04T14:44:35.248Z,2566.00
2022-11-04T14:47:19.769Z,3598.60
2022-11-04T14:50:01.108Z,82.25
2022-11-04T14:52:38.631Z,3626.20
2022-11-04T14:55:17.101Z,3661.80
2022-11-04T14:57:52.095Z,3644.80
2022-11-04T15:00:34.374Z,3668.20
2022-11-04T15:03:51.963Z,3031.25
2022-11-04T15:06:11.270Z,3657.50
2022-11-04T15:08:46.622Z,3637.50
2022-11-04T15:11:43.059Z,3024.40
2022-11-04T15:14:19.303Z,3633.75
2022-11-04T15:16:56.430Z,1849.50
2022-11-04T15:19:33.059Z,3645.80
2022-11-04T15:22:07.599Z,3616.60
2022-11-04T15:24:44.314Z,2380.25
2022-11-04T15:27:19.271Z,3597.00
2022-11-04T15:29:55.939Z,3655.00
2022-11-04T15:32:29.706Z,3086.00
2022-11-04T15:35:04.302Z,3639.50
2022-11-04T15:37:41.503Z,3663.00
2022-11-04T15:40:16.525Z,2585.40
2022-11-04T15:42:50.974Z,3657.00
2022-11-04T15:45:51.295Z,2311.00
2022-11-04T15:48:29.880Z,1068.75
2022-11-04T15:51:13.881Z,809.50
2022-11-04T15:53:55.747Z,3594.25
2022-11-04T15:56:31.576Z,1535.40
2022-11-04T15:59:11.148Z,1530.00
2022-11-04T16:01:49.302Z,2163.50
2022-11-04T16:04:24.976Z,1877.00
2022-11-04T16:07:24.509Z,1806.25
2022-11-04T16:09:58.806Z,2272.50
2022-11-04T16:12:37.278Z,3719.50
2022-11-04T16:15:32.299Z,1992.50
2022-11-04T16:18:07.205Z,3445.50
2022-11-04T16:20:40.094Z,3357.00
2022-11-04T16:23:19.297Z,3620.40
2022-11-04T16:25:59.382Z,3733.20
2022-11-04T16:28:36.667Z,3006.75
2022-11-04T16:31:25.620Z,2639.60
2022-11-04T16:33:58.600Z,3399.40
2022-11-04T16:36:35.686Z,3713.60
2022-11-04T16:39:10.638Z,3386.00
2022-11-04T16:41:43.921Z,1539.80
2022-11-04T16:44:21.069Z,3771.25
2022-11-04T16:46:57.099Z,3769.75
2022-11-04T16:49:30.212Z,69.20
2022-11-04T16:52:03.617Z,415.80
2022-11-04T16:54:37.810Z,1534.40
2022-11-04T16:57:14.767Z,3115.00
2022-11-04T16:59:48.132Z,275.80
2022-11-04T17:02:27.264Z,69.25
2022-11-04T17:05:00.317Z,1907.20
2022-11-04T17:07:51.487Z,1545.00
2022-11-04T17:10:29.297Z,3022.00
2022-11-04T17:13:02.429Z,2646.80
2022-11-04T17:15:35.617Z,2971.40
2022-11-04T17:18:11.982Z,71.25
2022-11-04T17:20:49.055Z,1536.00
2022-11-04T17:23:23.664Z,1186.75
2022-11-04T17:25:58.769Z,227.40
2022-11-04T17:28:33.517Z,2279.40
2022-11-04T17:31:07.522Z,2304.00
2022-11-04T17:33:41.312Z,3730.20
2022-11-04T17:36:19.292Z,2652.40
2022-11-04T17:38:53.230Z,3347.20
2022-11-04T17:41:45.435Z,3219.00
2022-11-04T17:44:18.357Z,3677.60
2022-11-04T17:46:52.019Z,1921.80
2022-11-04T17:49:26.668Z,2790.60
2022-11-04T17:52:01.135Z,2697.00
2022-11-04T17:54:34.078Z,180.25
2022-11-04T17:57:08.489Z,798.40
2022-11-04T17:59:41.719Z,138.25
2022-11-04T18:02:14.766Z,2282.60
2022-11-04T18:04:47.707Z,80.20
2022-11-04T18:07:20.532Z,14.25
2022-11-04T18:09:53.492Z,1001.50
2022-11-04T18:12:41.525Z,1029.20
2022-11-04T18:15:17.548Z,2671.00
2022-11-04T18:17:52.615Z,2295.60
2022-11-04T18:20:25.510Z,1196.20
2022-11-04T18:23:00.872Z,3327.80
2022-11-04T18:25:34.185Z,3111.40
2022-11-04T18:28:08.636Z,2665.80
2022-11-04T18:30:42.206Z,2690.75
2022-11-04T18:33:15.050Z,3563.20
2022-11-04T18:35:47.978Z,3585.60
2022-11-04T18:38:21.560Z,1921.00
2022-11-04T18:40:54.942Z,1953.20
2022-11-04T18:43:29.932Z,53.50
2022-11-04T18:46:08.354Z,3349.75
2022-11-04T18:48:41.826Z,3057.80
2022-11-04T18:51:16.039Z,3056.80
2022-11-04T18:53:49.635Z,3800.00
2022-11-04T18:56:24.256Z,3191.00
2022-11-04T18:58:58.459Z,3361.20
2022-11-04T19:01:34.694Z,3746.80
2022-11-04T19:04:08.445Z,3345.00
2022-11-04T19:06:44.413Z,1948.40
2022-11-04T19:12:29.385Z,47.25
2022-11-04T19:15:05.546Z,1403.80
2022-11-04T19:17:39.278Z,3062.25
2022-11-04T19:20:13.735Z,3763.00
2022-11-04T19:22:47.995Z,1917.20
2022-11-04T19:25:21.016Z,3586.60
2022-11-04T19:28:18.623Z,1933.00
2022-11-04T19:30:58.900Z,2708.20
2022-11-04T19:33:32.846Z,2075.00
2022-11-04T19:36:07.972Z,1946.80
2022-11-04T19:38:42.098Z,2027.80
2022-11-04T19:41:30.435Z,1550.20
2022-11-04T19:44:06.294Z,1924.60
2022-11-04T19:46:42.068Z,3845.20
2022-11-04T19:49:15.211Z,3567.40
2022-11-04T19:51:48.481Z,1778.40
2022-11-04T19:54:21.458Z,3830.00
2022-11-04T19:56:54.993Z,1860.80
2022-11-04T19:59:27.862Z,3544.00
2022-11-04T20:02:02.168Z,2889.00
2022-11-04T20:04:35.948Z,3372.25
2022-11-04T20:07:08.947Z,3606.00
2022-11-04T20:09:42.166Z,2332.00
2022-11-04T20:12:33.506Z,2797.20
2022-11-04T20:15:08.627Z,3079.25
2022-11-04T20:17:43.055Z,2718.80
2022-11-04T20:20:17.138Z,3368.00
2022-11-04T20:22:50.743Z,1943.00
2022-11-04T20:25:24.688Z,1195.40
2022-11-04T20:27:58.209Z,3840.25
2022-11-04T20:30:32.044Z,447.00
2022-11-04T20:33:07.701Z,3823.40
2022-11-04T20:35:41.442Z,316.00
2022-11-04T20:38:14.973Z,623.00
2022-11-04T20:40:48.572Z,23.00
2022-11-04T20:43:21.344Z,25.75
2022-11-04T20:45:54.185Z,2712.40
2022-11-04T20:48:28.339Z,3830.00
2022-11-04T20:51:07.264Z,2638.00
2022-11-04T20:53:40.493Z,3856.00
2022-11-04T20:56:15.975Z,3831.20
2022-11-04T20:58:50.241Z,1553.80
2022-11-04T21:01:28.112Z,3852.40
2022-11-04T21:04:04.807Z,3827.00
2022-11-04T21:06:38.926Z,18.50
2022-11-04T21:09:14.284Z,23.50
2022-11-04T21:11:47.552Z,17.00
2022-11-04T21:14:20.423Z,38.00
2022-11-04T21:16:53.304Z,23.75
2022-11-04T21:19:27.469Z,2702.80
2022-11-04T21:22:00.308Z,10.75
2022-11-04T21:24:38.976Z,23.25
2022-11-04T21:27:12.272Z,17.75
2022-11-04T21:29:45.281Z,16.75
2022-11-04T21:32:18.145Z,25.25
2022-11-04T21:34:52.337Z,55.20
2022-11-04T21:37:25.182Z,1956.25
2022-11-04T21:39:58.003Z,2664.20
2022-11-04T21:42:30.969Z,11.50
2022-11-04T21:45:05.751Z,2318.25
2022-11-04T21:47:38.563Z,14.75
2022-11-04T21:50:17.882Z,11.50
2022-11-04T21:52:51.069Z,10.25
2022-11-04T21:55:23.856Z,6.25
2022-11-04T21:57:56.651Z,10.50
2022-11-04T22:00:29.476Z,48.00
2022-11-04T22:03:02.285Z,69.67
2022-11-04T22:05:36.565Z,7.50
2022-11-04T22:08:18.199Z,9.00
2022-11-04T22:10:51.029Z,92.60
2022-11-04T22:13:24.820Z,1152.60
2022-11-04T22:16:00.800Z,9.25
2022-11-04T22:18:34.643Z,3854.20
2022-11-04T22:21:11.192Z,6.00
2022-11-04T22:23:44.584Z,7.00
2022-11-04T22:26:19.710Z,7.00
2022-11-04T22:28:53.380Z,9.50
2022-11-04T22:31:28.562Z,9.00
2022-11-04T22:34:02.357Z,9.25
2022-11-04T22:36:36.797Z,8.25
2022-11-04T22:39:16.034Z,1160.00
2022-11-04T22:41:49.944Z,115.25
2022-11-04T22:44:22.811Z,4.50
2022-11-04T22:46:55.613Z,8.00
2022-11-04T22:49:28.477Z,6.00
2022-11-04T22:52:02.669Z,8.75
2022-11-04T22:54:35.489Z,5.25
2022-11-04T22:57:08.302Z,5.00
2022-11-04T22:59:41.101Z,4.25
2022-11-04T23:02:14.120Z,1175.40
2022-11-04T23:04:47.022Z,3.00
2022-11-04T23:07:21.545Z,63.40
2022-11-04T23:10:12.334Z,198.25
2022-11-04T23:13:02.548Z,3.00
2022-11-04T23:15:52.932Z,86.75
2022-11-04T23:18:43.966Z,5.00
2022-11-04T23:21:36.496Z,3.00
2022-11-04T23:24:27.865Z,3.25
2022-11-04T23:27:00.760Z,4.75
2022-11-04T23:29:50.883Z,1560.40
2022-11-04T23:32:27.232Z,4.00
2022-11-04T23:35:17.587Z,3.00
2022-11-04T23:37:50.390Z,4.75
2022-11-04T23:40:24.554Z,3.00
2022-11-04T23:42:57.659Z,3.50
2022-11-04T23:45:47.632Z,3.75
2022-11-04T23:48:38.048Z,4.00
2022-11-04T23:51:30.027Z,3.75
2022-11-04T23:54:20.471Z,6.00
2022-11-04T23:57:13.623Z,4.00
